createdAt,value
2018-12-18T00:02:13.589Z,101481.37
2018-12-18T00:04:36.781Z,101489.73
2018-12-18T00:06:59.939Z,101483.65
2018-12-18T00:09:23.058Z,101483.20
2018-12-18T00:11:46.500Z,101482.31
2018-12-18T00:14:09.592Z,101486.92
2018-12-18T00:16:32.771Z,101487.11
2018-12-18T00:18:55.897Z,101486.00
2018-12-18T00:21:19.019Z,101487.22
2018-12-18T00:23:42.157Z,101484.17
2018-12-18T00:26:05.289Z,101482.67
2018-12-18T00:28:28.437Z,101486.12
2018-12-18T00:30:52.210Z,101481.25
2018-12-18T00:33:15.341Z,101491.42
2018-12-18T00:35:38.494Z,101491.73
2018-12-18T00:38:01.607Z,101498.98
2018-12-18T00:40:24.793Z,101496.19
2018-12-18T00:42:47.911Z,101491.44
2018-12-18T00:45:11.080Z,101496.38
2018-12-18T00:47:34.221Z,101501.92
2018-12-18T00:49:57.379Z,101501.87
2018-12-18T00:52:20.532Z,101504.99
2018-12-18T00:54:43.709Z,101503.21
2018-12-18T00:57:06.837Z,101500.77
2018-12-18T00:59:29.986Z,101500.34
2018-12-18T01:01:58.612Z,101503.87
2018-12-18T01:04:21.786Z,101521.63
2018-12-18T01:06:44.956Z,101517.27
2018-12-18T01:09:08.168Z,101522.44
2018-12-18T01:11:31.703Z,101533.78
2018-12-18T01:13:54.828Z,101531.73
2018-12-18T01:16:17.943Z,101528.17
2018-12-18T01:18:41.076Z,101533.41
2018-12-18T01:21:04.275Z,101538.45
2018-12-18T01:23:27.437Z,101532.80
2018-12-18T01:25:50.584Z,101539.61
2018-12-18T01:28:13.756Z,101538.81
2018-12-18T01:30:36.866Z,101535.53
2018-12-18T01:33:00.014Z,101528.97
2018-12-18T01:35:23.129Z,101526.37
2018-12-18T01:37:46.250Z,101526.82
2018-12-18T01:40:09.459Z,101530.57
2018-12-18T01:42:32.562Z,101527.69
2018-12-18T01:44:55.684Z,101535.20
2018-12-18T01:47:18.838Z,101533.41
2018-12-18T01:49:42.011Z,101533.66
2018-12-18T01:52:05.125Z,101533.14
2018-12-18T01:54:28.276Z,101537.12
2018-12-18T01:56:51.400Z,101542.77
2018-12-18T01:59:14.565Z,101545.47
2018-12-18T02:01:37.705Z,101546.25
2018-12-18T02:04:05.948Z,101546.34
2018-12-18T02:06:25.957Z,101546.92
2018-12-18T02:08:49.099Z,101545.26
2018-12-18T02:11:12.252Z,101540.28
2018-12-18T02:13:35.373Z,101536.77
2018-12-18T02:15:58.524Z,101541.39
2018-12-18T02:18:21.679Z,101533.83
2018-12-18T02:20:44.815Z,101527.06
2018-12-18T02:23:08.002Z,101533.82
2018-12-18T02:25:31.106Z,101531.86
2018-12-18T02:27:54.297Z,101532.53
2018-12-18T02:30:17.437Z,101531.41
2018-12-18T02:32:40.597Z,101536.50
2018-12-18T02:35:04.424Z,101532.63
2018-12-18T02:37:27.575Z,101541.08
2018-12-18T02:39:50.776Z,101531.54
2018-12-18T02:42:13.905Z,101538.86
2018-12-18T02:44:37.138Z,101541.15
2018-12-18T02:47:00.287Z,101537.41
2018-12-18T02:49:23.412Z,101539.34
2018-12-18T02:51:46.570Z,101543.78
2018-12-18T02:54:09.674Z,101548.77
2018-12-18T02:56:32.820Z,101555.53
2018-12-18T02:58:56.034Z,101552.73
2018-12-18T03:01:19.148Z,101555.71
2018-12-18T03:03:42.305Z,101555.83
2018-12-18T03:06:05.465Z,101555.41
2018-12-18T03:08:28.643Z,101551.22
2018-12-18T03:10:51.802Z,101556.30
2018-12-18T03:13:14.978Z,101563.83
2018-12-18T03:15:38.178Z,101572.92
2018-12-18T03:18:01.309Z,101567.34
2018-12-18T03:20:24.450Z,101563.94
2018-12-18T03:22:47.597Z,101566.92
2018-12-18T03:25:10.711Z,101558.75
2018-12-18T03:27:33.853Z,101554.61
2018-12-18T03:29:57.017Z,101563.81
2018-12-18T03:32:21.703Z,101561.78
2018-12-18T03:34:44.825Z,101558.34
2018-12-18T03:37:07.961Z,101561.09
2018-12-18T03:39:31.076Z,101558.00
2018-12-18T03:41:54.222Z,101552.41
2018-12-18T03:44:17.353Z,101556.20
2018-12-18T03:46:40.935Z,101550.33
2018-12-18T03:49:04.073Z,101554.09
2018-12-18T03:51:27.235Z,101553.89
2018-12-18T03:53:50.339Z,101551.00
2018-12-18T03:56:13.444Z,101556.97
2018-12-18T03:58:36.570Z,101559.31
2018-12-18T04:00:59.711Z,101563.71
2018-12-18T04:03:22.878Z,101562.81
2018-12-18T04:05:46.001Z,101565.31
2018-12-18T04:08:09.169Z,101561.28
2018-12-18T04:10:32.285Z,101567.45
2018-12-18T04:12:55.395Z,101564.47
2018-12-18T04:15:18.554Z,101568.89
2018-12-18T04:17:41.692Z,101571.77
2018-12-18T04:20:05.191Z,101564.21
2018-12-18T04:22:28.368Z,101563.15
2018-12-18T04:24:51.507Z,101567.64
2018-12-18T04:27:14.635Z,101572.94
2018-12-18T04:29:37.737Z,101570.08
2018-12-18T04:32:00.878Z,101572.89
2018-12-18T04:34:24.038Z,101578.38
2018-12-18T04:36:47.188Z,101572.45
2018-12-18T04:39:10.291Z,101577.12
2018-12-18T04:41:33.520Z,101574.49
2018-12-18T04:43:56.652Z,101580.91
2018-12-18T04:46:19.811Z,101580.06
2018-12-18T04:48:42.953Z,101575.87
2018-12-18T04:51:06.078Z,101582.77
2018-12-18T04:53:29.199Z,101582.95
2018-12-18T04:55:52.326Z,101587.67
2018-12-18T04:58:15.495Z,101583.17
2018-12-18T05:00:38.629Z,101581.93
2018-12-18T05:03:01.740Z,101580.55
2018-12-18T05:05:24.912Z,101576.67
2018-12-18T05:07:48.014Z,101583.31
2018-12-18T05:10:11.242Z,101589.19
2018-12-18T05:12:34.366Z,101586.65
2018-12-18T05:14:57.489Z,101585.94
2018-12-18T05:17:20.639Z,101576.89
2018-12-18T05:19:43.759Z,101578.81
2018-12-18T05:22:06.945Z,101577.88
2018-12-18T05:24:30.064Z,101575.78
2018-12-18T05:26:53.247Z,101572.54
2018-12-18T05:29:16.391Z,101573.61
2018-12-18T05:31:39.511Z,101576.89
2018-12-18T05:34:02.626Z,101578.17
2018-12-18T05:36:26.015Z,101574.72
2018-12-18T05:38:49.307Z,101574.69
2018-12-18T05:41:12.459Z,101570.88
2018-12-18T05:43:35.575Z,101579.73
2018-12-18T05:45:58.698Z,101585.95
2018-12-18T05:48:21.834Z,101578.92
2018-12-18T05:50:44.996Z,101574.70
2018-12-18T05:53:08.095Z,101586.34
2018-12-18T05:55:31.211Z,101581.84
2018-12-18T05:57:54.376Z,101585.84
2018-12-18T06:00:17.519Z,101584.06
2018-12-18T06:02:40.618Z,101585.09
2018-12-18T06:05:04.621Z,101584.20
2018-12-18T06:07:27.776Z,101583.31
2018-12-18T06:09:50.922Z,101590.05
2018-12-18T06:12:14.086Z,101598.30
2018-12-18T06:14:37.194Z,101587.50
2018-12-18T06:17:00.366Z,101601.56
2018-12-18T06:19:23.486Z,101607.17
2018-12-18T06:21:46.654Z,101616.05
2018-12-18T06:24:09.779Z,101614.55
2018-12-18T06:26:32.904Z,101611.43
2018-12-18T06:28:56.027Z,101613.89
2018-12-18T06:31:19.127Z,101610.93
2018-12-18T06:33:42.266Z,101613.08
2018-12-18T06:36:05.414Z,101610.13
2018-12-18T06:38:28.558Z,101616.23
2018-12-18T06:40:51.691Z,101610.41
2018-12-18T06:43:14.790Z,101613.16
2018-12-18T06:45:37.958Z,101611.04
2018-12-18T06:48:01.083Z,101613.63
2018-12-18T06:50:25.707Z,101615.22
2018-12-18T06:52:48.827Z,101611.86
2018-12-18T06:55:11.926Z,101615.81
2018-12-18T06:57:35.072Z,101619.10
2018-12-18T06:59:58.201Z,101612.69
2018-12-18T07:02:21.360Z,101612.50
2018-12-18T07:04:44.489Z,101613.18
2018-12-18T07:07:07.614Z,101620.08
2018-12-18T07:09:30.734Z,101620.53
2018-12-18T07:11:53.877Z,101621.84
2018-12-18T07:14:17.025Z,101624.48
2018-12-18T07:16:40.151Z,101625.59
2018-12-18T07:19:03.498Z,101632.39
2018-12-18T07:21:26.606Z,101638.02
2018-12-18T07:23:54.558Z,101637.22
2018-12-18T07:26:17.711Z,101644.89
2018-12-18T07:28:40.894Z,101638.33
2018-12-18T07:31:04.006Z,101631.25
2018-12-18T07:33:27.220Z,101639.58
2018-12-18T07:35:50.342Z,101641.89
2018-12-18T07:38:13.459Z,101650.40
2018-12-18T07:40:36.617Z,101642.06
2018-12-18T07:42:59.728Z,101654.03
2018-12-18T07:45:22.861Z,101647.33
2018-12-18T07:47:45.970Z,101640.91
2018-12-18T07:50:09.193Z,101642.34
2018-12-18T07:52:32.351Z,101652.08
2018-12-18T07:54:55.515Z,101642.05
2018-12-18T07:57:18.668Z,101641.88
2018-12-18T07:59:41.774Z,101654.02
2018-12-18T08:02:05.046Z,101661.50
2018-12-18T08:04:28.186Z,101653.82
2018-12-18T08:06:51.318Z,101654.80
2018-12-18T08:09:14.466Z,101657.65
2018-12-18T08:11:37.595Z,101658.06
2018-12-18T08:14:00.730Z,101666.33
2018-12-18T08:16:23.905Z,101668.16
2018-12-18T08:18:47.015Z,101668.74
2018-12-18T08:21:10.178Z,101662.89
2018-12-18T08:23:33.294Z,101678.51
2018-12-18T08:25:56.417Z,101678.11
2018-12-18T08:28:19.567Z,101679.02
2018-12-18T08:30:42.722Z,101677.31
2018-12-18T08:33:05.850Z,101688.38
2018-12-18T08:35:28.965Z,101682.27
2018-12-18T08:37:52.124Z,101682.41
2018-12-18T08:40:15.275Z,101687.34
2018-12-18T08:42:38.393Z,101687.72
2018-12-18T08:45:01.549Z,101686.47
2018-12-18T08:47:25.355Z,101691.23
2018-12-18T08:49:48.472Z,101684.34
2018-12-18T08:52:11.656Z,101688.38
2018-12-18T08:54:34.848Z,101690.44
2018-12-18T08:56:58.026Z,101692.62
2018-12-18T08:59:21.134Z,101693.59
2018-12-18T09:01:44.273Z,101688.21
2018-12-18T09:04:07.463Z,101686.16
2018-12-18T09:06:30.630Z,101692.61
2018-12-18T09:08:53.734Z,101695.56
2018-12-18T09:11:16.879Z,101694.22
2018-12-18T09:13:39.990Z,101691.84
2018-12-18T09:16:05.082Z,101694.38
2018-12-18T09:18:28.236Z,101697.98
2018-12-18T09:20:51.397Z,101698.33
2018-12-18T09:23:14.950Z,101697.48
2018-12-18T09:25:38.120Z,101696.25
2018-12-18T09:28:01.311Z,101695.25
2018-12-18T09:30:24.429Z,101700.35
2018-12-18T09:32:47.616Z,101687.23
2018-12-18T09:35:10.784Z,101691.26
2018-12-18T09:37:33.947Z,101691.27
2018-12-18T09:39:57.102Z,101685.30
2018-12-18T09:42:25.724Z,101681.48
2018-12-18T09:44:48.848Z,101679.08
2018-12-18T09:47:12.017Z,101684.06
2018-12-18T09:49:35.158Z,101680.03
2018-12-18T09:51:58.306Z,101681.84
2018-12-18T09:54:21.469Z,101674.76
2018-12-18T09:56:50.525Z,101668.88
2018-12-18T09:59:13.702Z,101673.19
2018-12-18T10:01:36.807Z,101662.23
2018-12-18T10:03:59.929Z,101667.84
2018-12-18T10:06:23.064Z,101661.22
2018-12-18T10:08:46.264Z,101654.41
2018-12-18T10:11:09.429Z,101644.52
2018-12-18T10:13:32.538Z,101641.05
2018-12-18T10:15:55.785Z,101635.95
2018-12-18T10:18:18.892Z,101629.63
2018-12-18T10:20:42.064Z,101615.14
2018-12-18T10:23:05.228Z,101620.38
2018-12-18T10:25:28.437Z,101610.20
2018-12-18T10:27:51.613Z,101606.53
2018-12-18T10:30:14.759Z,101603.75
2018-12-18T10:32:37.873Z,101592.09
2018-12-18T10:35:01.019Z,101593.69
2018-12-18T10:37:24.146Z,101595.42
2018-12-18T10:39:47.263Z,101588.95
2018-12-18T10:42:10.454Z,101595.03
2018-12-18T10:44:33.666Z,101590.86
2018-12-18T10:46:56.809Z,101592.14
2018-12-18T10:49:19.967Z,101590.30
2018-12-18T10:51:43.096Z,101589.84
2018-12-18T10:54:06.246Z,101589.30
2018-12-18T10:56:29.397Z,101584.94
2018-12-18T10:58:52.565Z,101579.50
2018-12-18T11:01:17.658Z,101582.52
2018-12-18T11:03:40.809Z,101593.59
2018-12-18T11:06:09.599Z,101587.34
2018-12-18T11:08:29.070Z,101582.14
2018-12-18T11:10:52.196Z,101582.69
2018-12-18T11:13:17.238Z,101581.30
2018-12-18T11:15:40.352Z,101571.50
2018-12-18T11:18:03.507Z,101571.70
2018-12-18T11:20:26.623Z,101566.64
2018-12-18T11:22:49.734Z,101566.66
2018-12-18T11:25:12.881Z,101572.19
2018-12-18T11:27:35.993Z,101571.36
2018-12-18T11:29:59.185Z,101567.33
2018-12-18T11:32:22.307Z,101567.85
2018-12-18T11:34:45.425Z,101574.08
2018-12-18T11:37:08.574Z,101574.16
2018-12-18T11:39:31.700Z,101569.93
2018-12-18T11:41:54.858Z,101574.78
2018-12-18T11:44:17.971Z,101574.80
2018-12-18T11:46:41.105Z,101565.84
2018-12-18T11:49:04.275Z,101560.30
2018-12-18T11:51:27.409Z,101561.41
2018-12-18T11:53:50.551Z,101553.37
2018-12-18T11:56:13.699Z,101538.53
2018-12-18T11:58:36.827Z,101542.59
2018-12-18T12:01:00.061Z,101540.64
2018-12-18T12:03:23.184Z,101540.16
2018-12-18T12:05:46.321Z,101535.63
2018-12-18T12:08:09.446Z,101539.32
2018-12-18T12:10:32.566Z,101529.08
2018-12-18T12:12:55.742Z,101532.75
2018-12-18T12:15:18.879Z,101416.77
2018-12-18T12:17:42.081Z,101526.10
2018-12-18T12:20:05.303Z,101533.85
2018-12-18T12:22:28.437Z,101527.34
2018-12-18T12:24:52.428Z,101535.02
2018-12-18T12:27:21.206Z,101529.59
2018-12-18T12:29:44.352Z,101526.66
2018-12-18T12:32:07.497Z,101522.38
2018-12-18T12:34:30.635Z,101521.09
2018-12-18T12:36:53.774Z,101518.25
2018-12-18T12:39:16.890Z,101512.67
2018-12-18T12:41:40.058Z,101514.87
2018-12-18T12:44:03.241Z,101502.64
2018-12-18T12:46:26.401Z,101505.73
2018-12-18T12:48:54.870Z,101504.41
2018-12-18T12:51:18.006Z,101508.66
2018-12-18T12:53:48.958Z,101502.28
2018-12-18T12:56:12.125Z,101496.34
2018-12-18T12:58:35.239Z,101495.38
2018-12-18T13:00:58.392Z,101496.20
2018-12-18T13:03:21.547Z,101504.52
2018-12-18T13:05:44.693Z,101498.19
2018-12-18T13:08:07.821Z,101500.41
2018-12-18T13:10:30.978Z,101497.45
2018-12-18T13:12:54.109Z,101503.12
2018-12-18T13:15:17.228Z,101499.00
2018-12-18T13:17:40.373Z,101491.08
2018-12-18T13:20:04.259Z,101495.60
2018-12-18T13:22:27.408Z,101487.54
2018-12-18T13:24:50.501Z,101490.87
2018-12-18T13:27:13.655Z,101479.26
2018-12-18T13:29:37.221Z,101484.97
2018-12-18T13:32:00.341Z,101476.88
2018-12-18T13:34:23.509Z,101476.80
2018-12-18T13:36:46.623Z,101466.76
2018-12-18T13:39:09.877Z,101466.42
2018-12-18T13:41:33.012Z,101463.73
2018-12-18T13:43:56.120Z,101463.53
2018-12-18T13:46:19.226Z,101460.79
2018-12-18T13:48:42.408Z,101460.09
2018-12-18T13:51:05.532Z,101456.11
2018-12-18T13:53:28.625Z,101453.07
2018-12-18T13:55:51.812Z,101460.66
2018-12-18T13:58:14.938Z,101455.37
2018-12-18T14:00:38.047Z,101449.16
2018-12-18T14:03:01.193Z,101450.03
2018-12-18T14:05:24.316Z,101445.73
2018-12-18T14:07:47.500Z,101449.99
2018-12-18T14:10:10.654Z,101444.79
2018-12-18T14:12:33.807Z,101440.08
2018-12-18T14:14:56.944Z,101432.36
2018-12-18T14:17:20.059Z,101438.67
2018-12-18T14:19:43.210Z,101435.54
2018-12-18T14:22:06.380Z,101439.84
2018-12-18T14:24:29.493Z,101435.84
2018-12-18T14:26:52.628Z,101427.53
2018-12-18T14:29:15.751Z,101421.88
2018-12-18T14:31:38.897Z,101367.17
2018-12-18T14:34:02.004Z,101427.63
2018-12-18T14:36:25.158Z,101433.56
2018-12-18T14:38:48.289Z,101422.20
2018-12-18T14:41:11.460Z,101426.98
2018-12-18T14:43:34.613Z,101427.62
2018-12-18T14:45:57.799Z,101421.44
2018-12-18T14:48:20.920Z,101425.52
2018-12-18T14:50:44.062Z,101421.91
2018-12-18T14:53:07.168Z,101425.52
2018-12-18T14:55:30.320Z,101421.36
2018-12-18T14:57:53.410Z,101427.50
2018-12-18T15:00:16.577Z,101427.12
2018-12-18T15:02:39.699Z,101428.67
2018-12-18T15:05:02.830Z,101424.95
2018-12-18T15:07:25.964Z,101417.63
2018-12-18T15:09:49.050Z,101419.61
2018-12-18T15:12:12.205Z,101417.05
2018-12-18T15:14:35.328Z,101416.47
2018-12-18T15:16:58.430Z,101421.98
2018-12-18T15:19:21.558Z,101422.96
2018-12-18T15:21:44.738Z,101426.93
2018-12-18T15:24:07.866Z,101426.72
2018-12-18T15:26:31.099Z,101431.06
2018-12-18T15:28:54.236Z,101428.44
2018-12-18T15:31:17.419Z,101426.73
2018-12-18T15:33:40.551Z,101430.48
2018-12-18T15:36:03.703Z,101425.75
2018-12-18T15:38:26.971Z,101421.39
2018-12-18T15:40:50.098Z,101421.39
2018-12-18T15:43:13.228Z,101425.14
2018-12-18T15:45:36.402Z,101427.91
2018-12-18T15:47:59.532Z,101419.77
2018-12-18T15:50:22.676Z,101417.38
2018-12-18T15:52:45.806Z,101412.48
2018-12-18T15:55:08.928Z,101406.53
2018-12-18T15:57:32.111Z,101412.23
2018-12-18T15:59:55.231Z,101413.23
2018-12-18T16:02:24.120Z,101412.64
2018-12-18T16:04:43.476Z,101409.47
2018-12-18T16:07:06.584Z,101412.25
2018-12-18T16:09:29.743Z,101413.59
2018-12-18T16:11:52.861Z,101406.29
2018-12-18T16:14:15.980Z,101401.55
2018-12-18T16:16:39.128Z,101405.29
2018-12-18T16:19:02.236Z,101408.08
2018-12-18T16:21:25.401Z,101417.92
2018-12-18T16:23:48.548Z,101415.15
2018-12-18T16:26:11.653Z,101412.58
2018-12-18T16:28:34.799Z,101407.43
2018-12-18T16:30:57.927Z,101409.44
2018-12-18T16:33:21.065Z,101410.55
2018-12-18T16:35:46.268Z,101402.09
2018-12-18T16:38:09.365Z,101395.38
2018-12-18T16:40:32.501Z,101404.66
2018-12-18T16:42:55.635Z,101403.20
2018-12-18T16:45:18.854Z,101402.63
2018-12-18T16:47:42.011Z,101403.84
2018-12-18T16:50:05.548Z,101391.56
2018-12-18T16:52:28.691Z,101393.94
2018-12-18T16:54:51.811Z,101399.84
2018-12-18T16:57:14.972Z,101401.41
2018-12-18T16:59:38.100Z,101395.86
2018-12-18T17:02:01.221Z,101395.30
2018-12-18T17:04:24.363Z,101400.80
2018-12-18T17:06:47.492Z,101394.45
2018-12-18T17:09:10.683Z,101387.56
2018-12-18T17:11:33.848Z,101385.78
2018-12-18T17:13:56.983Z,101380.02
2018-12-18T17:16:20.131Z,101370.58
2018-12-18T17:18:43.272Z,101362.89
2018-12-18T17:21:06.497Z,101365.83
2018-12-18T17:23:29.654Z,101362.09
2018-12-18T17:25:52.770Z,101366.59
2018-12-18T17:28:15.934Z,101362.25
2018-12-18T17:30:39.069Z,101360.25
2018-12-18T17:33:02.226Z,101364.39
2018-12-18T17:35:25.351Z,101380.14
2018-12-18T17:37:48.478Z,101381.34
2018-12-18T17:40:11.594Z,101374.78
2018-12-18T17:42:34.752Z,101372.08
2018-12-18T17:44:57.869Z,101368.31
2018-12-18T17:47:27.792Z,101372.27
2018-12-18T17:49:50.987Z,101366.94
2018-12-18T17:52:14.139Z,101363.75
2018-12-18T17:54:37.296Z,101365.70
2018-12-18T17:57:00.449Z,101370.61
2018-12-18T17:59:23.571Z,101368.71
2018-12-18T18:01:46.748Z,101368.80
2018-12-18T18:04:09.892Z,101364.48
2018-12-18T18:06:33.099Z,101353.05
2018-12-18T18:08:56.253Z,101351.81
2018-12-18T18:11:19.411Z,101354.39
2018-12-18T18:13:42.531Z,101348.84
2018-12-18T18:16:05.661Z,101353.95
2018-12-18T18:18:28.826Z,101350.00
2018-12-18T18:20:51.924Z,101348.41
2018-12-18T18:23:15.088Z,101341.95
2018-12-18T18:25:38.200Z,101343.47
2018-12-18T18:28:01.322Z,101341.44
2018-12-18T18:30:24.464Z,101345.82
2018-12-18T18:32:47.653Z,101351.55
2018-12-18T18:35:10.779Z,101354.71
2018-12-18T18:37:33.933Z,101348.22
2018-12-18T18:39:57.080Z,101335.96
2018-12-18T18:42:20.275Z,101329.47
2018-12-18T18:44:43.402Z,101332.98
2018-12-18T18:47:06.548Z,101327.57
2018-12-18T18:49:29.686Z,101326.45
2018-12-18T18:51:52.813Z,101321.26
2018-12-18T18:54:15.995Z,101322.28
2018-12-18T18:56:39.121Z,101319.05
2018-12-18T18:59:02.309Z,101313.18
2018-12-18T19:01:25.446Z,101318.77
2018-12-18T19:03:48.561Z,101311.61
2018-12-18T19:06:11.741Z,101309.58
2018-12-18T19:11:20.687Z,101308.59
2018-12-18T19:13:43.821Z,101307.89
2018-12-18T19:16:07.004Z,101308.20
2018-12-18T19:18:30.157Z,101293.80
2018-12-18T19:20:53.339Z,101287.50
2018-12-18T19:23:16.496Z,101290.25
2018-12-18T19:25:39.598Z,101296.60
2018-12-18T19:28:02.716Z,101292.16
2018-12-18T19:30:25.855Z,101293.00
2018-12-18T19:32:48.958Z,101295.19
2018-12-18T19:35:12.149Z,101298.74
2018-12-18T19:37:35.292Z,101292.43
2018-12-18T19:39:58.430Z,101291.80
2018-12-18T19:42:21.830Z,101287.98
2018-12-18T19:44:45.401Z,101287.23
2018-12-18T19:47:08.543Z,101290.25
2018-12-18T19:49:31.697Z,101291.36
2018-12-18T19:51:54.815Z,101292.88
2018-12-18T19:54:17.951Z,101296.28
2018-12-18T19:56:41.048Z,101296.52
2018-12-18T19:59:10.660Z,101289.17
2018-12-18T20:01:29.426Z,101277.67
2018-12-18T20:03:52.510Z,101277.95
2018-12-18T20:06:15.719Z,101273.50
2018-12-18T20:08:38.871Z,101268.09
2018-12-18T20:11:02.052Z,101268.61
2018-12-18T20:13:25.181Z,101263.38
2018-12-18T20:15:48.360Z,101269.47
2018-12-18T20:18:11.481Z,101260.41
2018-12-18T20:20:34.602Z,101257.16
2018-12-18T20:22:57.803Z,101252.41
2018-12-18T20:25:20.931Z,101253.83
2018-12-18T20:27:44.085Z,101248.10
2018-12-18T20:30:07.331Z,101240.60
2018-12-18T20:32:30.470Z,101227.84
2018-12-18T20:34:53.646Z,101220.97
2018-12-18T20:37:18.348Z,101220.74
2018-12-18T20:39:41.728Z,101215.28
2018-12-18T20:42:04.928Z,101209.87
2018-12-18T20:44:28.062Z,101206.22
2018-12-18T20:46:51.172Z,101196.33
2018-12-18T20:49:14.335Z,101183.53
2018-12-18T20:51:37.443Z,101179.98
2018-12-18T20:54:00.558Z,101173.06
2018-12-18T20:56:23.722Z,101157.16
2018-12-18T20:58:46.832Z,101160.49
2018-12-18T21:01:09.935Z,101150.61
2018-12-18T21:03:33.083Z,101141.27
2018-12-18T21:08:32.136Z,101127.46
2018-12-18T21:10:55.238Z,101118.67
2018-12-18T21:13:24.095Z,101118.34
2018-12-18T21:15:47.247Z,101120.63
2018-12-18T21:18:10.394Z,101121.56
2018-12-18T21:20:33.593Z,101114.33
2018-12-18T21:22:56.707Z,101120.69
2018-12-18T21:25:19.822Z,101114.14
2018-12-18T21:27:44.513Z,101113.92
2018-12-18T21:30:08.919Z,101107.66
2018-12-18T21:32:32.075Z,101103.53
2018-12-18T21:34:55.252Z,101098.56
2018-12-18T21:37:18.371Z,101097.02
2018-12-18T21:39:42.663Z,101101.36
2018-12-18T21:42:05.774Z,101108.30
2018-12-18T21:44:28.919Z,101102.33
2018-12-18T21:46:52.045Z,101098.14
2018-12-18T21:49:15.145Z,101094.23
2018-12-18T21:51:38.302Z,101086.12
2018-12-18T21:54:01.410Z,101091.03
2018-12-18T21:56:24.521Z,101085.17
2018-12-18T21:58:47.633Z,101090.89
2018-12-18T22:01:10.749Z,101083.55
2018-12-18T22:03:33.865Z,101082.44
2018-12-18T22:05:56.963Z,101080.36
2018-12-18T22:08:20.126Z,101065.02
2018-12-18T22:10:43.238Z,101063.45
2018-12-18T22:13:06.379Z,101069.79
2018-12-18T22:15:29.534Z,101063.92
2018-12-18T22:17:52.627Z,101060.20
2018-12-18T22:20:15.747Z,101054.91
2018-12-18T22:22:38.886Z,101051.44
2018-12-18T22:25:02.033Z,101063.70
2018-12-18T22:27:25.155Z,101065.62
2018-12-18T22:29:48.406Z,101058.78
2018-12-18T22:32:11.499Z,101064.96
2018-12-18T22:34:34.626Z,101065.94
2018-12-18T22:36:57.754Z,101074.10
2018-12-18T22:39:20.851Z,101072.20
2018-12-18T22:41:43.982Z,101068.88
2018-12-18T22:44:07.105Z,101066.04
2018-12-18T22:46:30.212Z,101068.79
2018-12-18T22:48:53.334Z,101067.35
2018-12-18T22:51:16.482Z,101073.80
2018-12-18T22:53:39.597Z,101065.33
2018-12-18T22:56:02.712Z,101062.40
2018-12-18T22:58:25.837Z,101055.30
2018-12-18T23:00:52.781Z,101044.47
2018-12-18T23:03:15.889Z,101046.47
2018-12-18T23:05:38.990Z,101036.98
2018-12-18T23:08:02.117Z,101029.70
2018-12-18T23:10:25.259Z,101027.13
2018-12-18T23:12:48.404Z,101021.98
2018-12-18T23:15:11.530Z,101015.70
2018-12-18T23:17:34.677Z,101011.31
2018-12-18T23:19:57.803Z,101012.78
2018-12-18T23:22:20.918Z,101010.64
2018-12-18T23:24:44.075Z,101008.61
2018-12-18T23:27:07.159Z,100998.81
2018-12-18T23:29:30.274Z,100999.56
2018-12-18T23:31:53.399Z,100995.66
2018-12-18T23:34:16.510Z,100984.66
2018-12-18T23:36:40.171Z,100985.11
2018-12-18T23:39:05.255Z,100975.72
2018-12-18T23:41:28.396Z,100980.71
2018-12-18T23:43:51.517Z,100969.72
2018-12-18T23:46:14.627Z,100970.48
2018-12-18T23:48:39.862Z,100968.44
2018-12-18T23:51:03.533Z,100970.28
2018-12-18T23:53:26.624Z,100967.87
2018-12-18T23:55:49.719Z,100967.91
2018-12-18T23:58:12.858Z,100960.73
